sensor_id;sensor_type;location;lat;lon;timestamp;temperature;humidity
31733;DHT22;18312;51.486;7.144;2023-05-07T00:01:09;14.30;99.90
31733;DHT22;18312;51.486;7.144;2023-05-07T00:03:36;14.30;99.90
31733;DHT22;18312;51.486;7.144;2023-05-07T00:06:03;14.30;99.90
31733;DHT22;18312;51.486;7.144;2023-05-07T00:08:29;14.30;99.90
31733;DHT22;18312;51.486;7.144;2023-05-07T00:10:56;14.20;99.90
31733;DHT22;18312;51.486;7.144;2023-05-07T00:13:24;14.20;99.90
31733;DHT22;18312;51.486;7.144;2023-05-07T00:15:50;14.30;99.90
31733;DHT22;18312;51.486;7.144;2023-05-07T00:18:17;14.20;99.90
31733;DHT22;18312;51.486;7.144;2023-05-07T00:20:46;14.30;99.90
31733;DHT22;18312;51.486;7.144;2023-05-07T00:23:12;14.30;99.90
31733;DHT22;18312;51.486;7.144;2023-05-07T00:25:39;14.30;99.90
31733;DHT22;18312;51.486;7.144;2023-05-07T00:28:06;14.30;99.90
31733;DHT22;18312;51.486;7.144;2023-05-07T00:30:34;14.30;99.90
31733;DHT22;18312;51.486;7.144;2023-05-07T00:33:00;14.30;99.90
31733;DHT22;18312;51.486;7.144;2023-05-07T00:35:27;14.30;99.90
31733;DHT22;18312;51.486;7.144;2023-05-07T00:37:54;14.40;99.90
31733;DHT22;18312;51.486;7.144;2023-05-07T00:40:21;14.40;99.90
31733;DHT22;18312;51.486;7.144;2023-05-07T00:42:47;14.40;99.90
31733;DHT22;18312;51.486;7.144;2023-05-07T00:45:14;14.30;99.90
31733;DHT22;18312;51.486;7.144;2023-05-07T00:47:42;14.30;99.90
31733;DHT22;18312;51.486;7.144;2023-05-07T00:50:09;14.30;99.90
31733;DHT22;18312;51.486;7.144;2023-05-07T00:52:37;14.30;99.90
31733;DHT22;18312;51.486;7.144;2023-05-07T00:55:05;14.20;99.90
31733;DHT22;18312;51.486;7.144;2023-05-07T00:57:32;14.20;99.90
31733;DHT22;18312;51.486;7.144;2023-05-07T00:59:59;14.20;99.90
31733;DHT22;18312;51.486;7.144;2023-05-07T01:02:25;14.20;99.90
31733;DHT22;18312;51.486;7.144;2023-05-07T01:04:53;14.10;99.90
31733;DHT22;18312;51.486;7.144;2023-05-07T01:07:21;14.10;99.90
31733;DHT22;18312;51.486;7.144;2023-05-07T01:09:48;14.00;99.90
31733;DHT22;18312;51.486;7.144;2023-05-07T01:12:14;14.00;99.90
31733;DHT22;18312;51.486;7.144;2023-05-07T01:14:41;14.00;99.90
31733;DHT22;18312;51.486;7.144;2023-05-07T01:17:08;14.10;99.90
31733;DHT22;18312;51.486;7.144;2023-05-07T01:19:35;14.20;99.90
31733;DHT22;18312;51.486;7.144;2023-05-07T01:22:03;14.20;99.90
31733;DHT22;18312;51.486;7.144;2023-05-07T01:24:34;14.20;99.90
31733;DHT22;18312;51.486;7.144;2023-05-07T01:27:01;14.20;99.90
31733;DHT22;18312;51.486;7.144;2023-05-07T01:29:28;14.20;99.90
31733;DHT22;18312;51.486;7.144;2023-05-07T01:31:56;14.20;99.90
31733;DHT22;18312;51.486;7.144;2023-05-07T01:34:23;14.20;99.90
31733;DHT22;18312;51.486;7.144;2023-05-07T01:36:51;14.20;99.90
31733;DHT22;18312;51.486;7.144;2023-05-07T01:39:18;14.20;99.90
31733;DHT22;18312;51.486;7.144;2023-05-07T01:41:46;14.10;99.90
31733;DHT22;18312;51.486;7.144;2023-05-07T01:44:13;14.10;99.90
31733;DHT22;18312;51.486;7.144;2023-05-07T01:46:40;14.20;99.90
31733;DHT22;18312;51.486;7.144;2023-05-07T01:49:07;14.10;99.90
31733;DHT22;18312;51.486;7.144;2023-05-07T01:51:33;14.20;99.90
31733;DHT22;18312;51.486;7.144;2023-05-07T01:54:00;14.20;99.90
31733;DHT22;18312;51.486;7.144;2023-05-07T01:56:27;14.20;99.90
31733;DHT22;18312;51.486;7.144;2023-05-07T01:58:55;14.10;99.90
31733;DHT22;18312;51.486;7.144;2023-05-07T02:01:22;14.20;99.90
31733;DHT22;18312;51.486;7.144;2023-05-07T02:03:48;14.10;99.90
31733;DHT22;18312;51.486;7.144;2023-05-07T02:06:15;14.10;99.90
31733;DHT22;18312;51.486;7.144;2023-05-07T02:08:41;14.10;99.90
31733;DHT22;18312;51.486;7.144;2023-05-07T02:11:08;14.00;99.90
31733;DHT22;18312;51.486;7.144;2023-05-07T02:13:35;14.00;99.90
31733;DHT22;18312;51.486;7.144;2023-05-07T02:16:03;14.00;99.90
31733;DHT22;18312;51.486;7.144;2023-05-07T02:18:29;14.00;99.90
31733;DHT22;18312;51.486;7.144;2023-05-07T02:20:57;14.00;99.90
31733;DHT22;18312;51.486;7.144;2023-05-07T02:23:23;14.00;99.90
31733;DHT22;18312;51.486;7.144;2023-05-07T02:25:50;13.90;99.90
31733;DHT22;18312;51.486;7.144;2023-05-07T02:28:17;13.90;99.90
31733;DHT22;18312;51.486;7.144;2023-05-07T02:30:43;13.90;99.90
31733;DHT22;18312;51.486;7.144;2023-05-07T02:33:11;13.80;99.90
31733;DHT22;18312;51.486;7.144;2023-05-07T02:35:39;13.90;99.90
31733;DHT22;18312;51.486;7.144;2023-05-07T02:38:05;13.80;99.90
31733;DHT22;18312;51.486;7.144;2023-05-07T02:40:32;13.70;99.90
31733;DHT22;18312;51.486;7.144;2023-05-07T02:43:04;13.70;99.90
31733;DHT22;18312;51.486;7.144;2023-05-07T02:45:30;13.70;99.90
31733;DHT22;18312;51.486;7.144;2023-05-07T02:47:57;13.70;99.90
31733;DHT22;18312;51.486;7.144;2023-05-07T02:50:25;13.80;99.90
31733;DHT22;18312;51.486;7.144;2023-05-07T02:52:52;13.70;99.90
31733;DHT22;18312;51.486;7.144;2023-05-07T02:55:18;13.70;99.90
31733;DHT22;18312;51.486;7.144;2023-05-07T02:57:45;13.70;99.90
31733;DHT22;18312;51.486;7.144;2023-05-07T03:00:12;13.70;99.90
31733;DHT22;18312;51.486;7.144;2023-05-07T03:02:39;13.70;99.90
31733;DHT22;18312;51.486;7.144;2023-05-07T03:05:06;13.70;99.90
31733;DHT22;18312;51.486;7.144;2023-05-07T03:07:34;13.60;99.90
31733;DHT22;18312;51.486;7.144;2023-05-07T03:10:01;13.60;99.90
31733;DHT22;18312;51.486;7.144;2023-05-07T03:12:27;13.60;99.90
31733;DHT22;18312;51.486;7.144;2023-05-07T03:14:54;13.60;99.90
31733;DHT22;18312;51.486;7.144;2023-05-07T03:17:21;13.60;99.90
31733;DHT22;18312;51.486;7.144;2023-05-07T03:19:48;13.60;99.90
31733;DHT22;18312;51.486;7.144;2023-05-07T03:22:14;13.50;99.90
31733;DHT22;18312;51.486;7.144;2023-05-07T03:24:43;13.50;99.90
31733;DHT22;18312;51.486;7.144;2023-05-07T03:27:09;13.50;99.90
31733;DHT22;18312;51.486;7.144;2023-05-07T03:29:36;13.50;99.90
31733;DHT22;18312;51.486;7.144;2023-05-07T03:32:03;13.50;99.90
31733;DHT22;18312;51.486;7.144;2023-05-07T03:34:29;13.50;99.90
31733;DHT22;18312;51.486;7.144;2023-05-07T03:36:56;13.50;99.90
31733;DHT22;18312;51.486;7.144;2023-05-07T03:39:22;13.50;99.90
31733;DHT22;18312;51.486;7.144;2023-05-07T03:41:50;13.50;99.90
31733;DHT22;18312;51.486;7.144;2023-05-07T03:44:17;13.50;99.90
31733;DHT22;18312;51.486;7.144;2023-05-07T03:46:43;13.50;99.90
31733;DHT22;18312;51.486;7.144;2023-05-07T03:49:10;13.50;99.90
31733;DHT22;18312;51.486;7.144;2023-05-07T03:51:37;13.50;99.90
31733;DHT22;18312;51.486;7.144;2023-05-07T03:54:03;13.40;99.90
31733;DHT22;18312;51.486;7.144;2023-05-07T03:56:30;13.40;99.90
31733;DHT22;18312;51.486;7.144;2023-05-07T03:58:58;13.40;99.90
31733;DHT22;18312;51.486;7.144;2023-05-07T04:01:24;13.40;99.90
31733;DHT22;18312;51.486;7.144;2023-05-07T04:03:51;13.40;99.90
31733;DHT22;18312;51.486;7.144;2023-05-07T04:06:18;13.40;99.90
31733;DHT22;18312;51.486;7.144;2023-05-07T04:08:44;13.40;99.90
31733;DHT22;18312;51.486;7.144;2023-05-07T04:11:11;13.40;99.90
31733;DHT22;18312;51.486;7.144;2023-05-07T04:13:39;13.40;99.90
31733;DHT22;18312;51.486;7.144;2023-05-07T04:16:07;13.40;99.90
31733;DHT22;18312;51.486;7.144;2023-05-07T04:18:34;13.40;99.90
31733;DHT22;18312;51.486;7.144;2023-05-07T04:21:00;13.40;99.90
31733;DHT22;18312;51.486;7.144;2023-05-07T04:23:27;13.40;99.90
31733;DHT22;18312;51.486;7.144;2023-05-07T04:25:54;13.40;99.90
31733;DHT22;18312;51.486;7.144;2023-05-07T04:28:21;13.40;99.90
31733;DHT22;18312;51.486;7.144;2023-05-07T04:30:47;13.40;99.90
31733;DHT22;18312;51.486;7.144;2023-05-07T04:33:15;13.40;99.90
31733;DHT22;18312;51.486;7.144;2023-05-07T04:35:43;13.40;99.90
31733;DHT22;18312;51.486;7.144;2023-05-07T04:38:09;13.50;99.90
31733;DHT22;18312;51.486;7.144;2023-05-07T04:40:36;13.50;99.90
31733;DHT22;18312;51.486;7.144;2023-05-07T04:43:04;13.50;99.90
31733;DHT22;18312;51.486;7.144;2023-05-07T04:45:30;13.50;99.90
31733;DHT22;18312;51.486;7.144;2023-05-07T04:47:57;13.60;99.90
31733;DHT22;18312;51.486;7.144;2023-05-07T04:50:25;13.60;99.90
31733;DHT22;18312;51.486;7.144;2023-05-07T04:52:52;13.60;99.90
31733;DHT22;18312;51.486;7.144;2023-05-07T04:55:18;13.70;99.90
31733;DHT22;18312;51.486;7.144;2023-05-07T04:57:45;13.80;99.90
31733;DHT22;18312;51.486;7.144;2023-05-07T05:00:12;13.90;99.90
31733;DHT22;18312;51.486;7.144;2023-05-07T05:02:39;14.00;99.90
31733;DHT22;18312;51.486;7.144;2023-05-07T05:05:06;14.00;99.90
31733;DHT22;18312;51.486;7.144;2023-05-07T05:07:34;14.10;99.90
31733;DHT22;18312;51.486;7.144;2023-05-07T05:10:01;14.20;99.90
31733;DHT22;18312;51.486;7.144;2023-05-07T05:12:28;14.30;99.90
31733;DHT22;18312;51.486;7.144;2023-05-07T05:14:55;14.30;99.90
31733;DHT22;18312;51.486;7.144;2023-05-07T05:17:21;14.40;99.90
31733;DHT22;18312;51.486;7.144;2023-05-07T05:19:48;14.40;99.90
31733;DHT22;18312;51.486;7.144;2023-05-07T05:22:15;14.50;99.90
31733;DHT22;18312;51.486;7.144;2023-05-07T05:24:43;14.60;99.90
31733;DHT22;18312;51.486;7.144;2023-05-07T05:27:09;14.60;99.90
31733;DHT22;18312;51.486;7.144;2023-05-07T05:29:36;14.60;99.90
31733;DHT22;18312;51.486;7.144;2023-05-07T05:32:02;14.80;99.90
31733;DHT22;18312;51.486;7.144;2023-05-07T05:34:29;14.80;99.90
31733;DHT22;18312;51.486;7.144;2023-05-07T05:36:55;14.90;99.90
31733;DHT22;18312;51.486;7.144;2023-05-07T05:39:22;14.90;99.90
31733;DHT22;18312;51.486;7.144;2023-05-07T05:41:50;15.10;99.90
31733;DHT22;18312;51.486;7.144;2023-05-07T05:44:16;15.30;99.90
31733;DHT22;18312;51.486;7.144;2023-05-07T05:46:43;15.40;99.90
31733;DHT22;18312;51.486;7.144;2023-05-07T05:49:10;15.70;99.90
31733;DHT22;18312;51.486;7.144;2023-05-07T05:51:36;15.80;99.90
31733;DHT22;18312;51.486;7.144;2023-05-07T05:54:03;16.00;99.90
31733;DHT22;18312;51.486;7.144;2023-05-07T05:56:29;16.30;99.90
31733;DHT22;18312;51.486;7.144;2023-05-07T05:58:57;16.70;99.90
31733;DHT22;18312;51.486;7.144;2023-05-07T06:01:24;16.90;99.90
31733;DHT22;18312;51.486;7.144;2023-05-07T06:03:51;16.90;99.90
31733;DHT22;18312;51.486;7.144;2023-05-07T06:06:18;16.80;99.90
31733;DHT22;18312;51.486;7.144;2023-05-07T06:08:45;16.80;99.90
31733;DHT22;18312;51.486;7.144;2023-05-07T06:11:11;16.90;99.90
31733;DHT22;18312;51.486;7.144;2023-05-07T06:13:38;17.10;99.90
31733;DHT22;18312;51.486;7.144;2023-05-07T06:16:06;17.00;99.90
31733;DHT22;18312;51.486;7.144;2023-05-07T06:18:33;17.40;99.90
31733;DHT22;18312;51.486;7.144;2023-05-07T06:21:01;17.50;99.90
31733;DHT22;18312;51.486;7.144;2023-05-07T06:23:27;17.30;99.90
31733;DHT22;18312;51.486;7.144;2023-05-07T06:25:54;17.20;99.90
31733;DHT22;18312;51.486;7.144;2023-05-07T06:28:21;17.20;99.90
31733;DHT22;18312;51.486;7.144;2023-05-07T06:30:47;17.40;99.90
31733;DHT22;18312;51.486;7.144;2023-05-07T06:33:17;17.50;99.90
31733;DHT22;18312;51.486;7.144;2023-05-07T06:35:44;17.50;99.90
31733;DHT22;18312;51.486;7.144;2023-05-07T06:38:11;17.40;99.90
31733;DHT22;18312;51.486;7.144;2023-05-07T06:40:38;17.30;99.90
31733;DHT22;18312;51.486;7.144;2023-05-07T06:43:04;17.30;99.90
31733;DHT22;18312;51.486;7.144;2023-05-07T06:45:31;17.50;99.90
31733;DHT22;18312;51.486;7.144;2023-05-07T06:47:57;17.40;99.90
31733;DHT22;18312;51.486;7.144;2023-05-07T06:50:25;17.50;99.90
31733;DHT22;18312;51.486;7.144;2023-05-07T06:52:52;17.50;99.90
31733;DHT22;18312;51.486;7.144;2023-05-07T06:55:19;17.50;99.90
31733;DHT22;18312;51.486;7.144;2023-05-07T06:57:45;17.40;99.90
31733;DHT22;18312;51.486;7.144;2023-05-07T07:00:12;17.50;99.90
31733;DHT22;18312;51.486;7.144;2023-05-07T07:02:39;17.40;99.90
31733;DHT22;18312;51.486;7.144;2023-05-07T07:05:06;17.70;99.90
31733;DHT22;18312;51.486;7.144;2023-05-07T07:07:34;17.90;99.90
31733;DHT22;18312;51.486;7.144;2023-05-07T07:10:01;18.00;99.90
31733;DHT22;18312;51.486;7.144;2023-05-07T07:12:29;17.90;99.90
31733;DHT22;18312;51.486;7.144;2023-05-07T07:14:56;17.90;99.90
31733;DHT22;18312;51.486;7.144;2023-05-07T07:17:22;17.80;99.90
31733;DHT22;18312;51.486;7.144;2023-05-07T07:19:49;18.00;99.90
31733;DHT22;18312;51.486;7.144;2023-05-07T07:22:16;18.00;99.90
31733;DHT22;18312;51.486;7.144;2023-05-07T07:24:44;17.90;99.90
31733;DHT22;18312;51.486;7.144;2023-05-07T07:27:10;17.70;99.90
31733;DHT22;18312;51.486;7.144;2023-05-07T07:29:37;17.80;99.90
31733;DHT22;18312;51.486;7.144;2023-05-07T07:32:04;17.90;99.90
31733;DHT22;18312;51.486;7.144;2023-05-07T07:34:30;18.00;99.90
31733;DHT22;18312;51.486;7.144;2023-05-07T07:36:57;18.20;99.90
31733;DHT22;18312;51.486;7.144;2023-05-07T07:39:23;18.30;99.90
31733;DHT22;18312;51.486;7.144;2023-05-07T07:41:51;18.30;99.90
31733;DHT22;18312;51.486;7.144;2023-05-07T07:44:19;18.30;99.90
31733;DHT22;18312;51.486;7.144;2023-05-07T07:46:45;18.30;99.90
31733;DHT22;18312;51.486;7.144;2023-05-07T07:49:12;18.40;99.90
31733;DHT22;18312;51.486;7.144;2023-05-07T07:51:38;18.70;99.90
31733;DHT22;18312;51.486;7.144;2023-05-07T07:54:05;18.60;99.90
31733;DHT22;18312;51.486;7.144;2023-05-07T07:56:33;18.70;99.90
31733;DHT22;18312;51.486;7.144;2023-05-07T07:59:01;18.70;99.90
31733;DHT22;18312;51.486;7.144;2023-05-07T08:01:28;18.70;99.90
31733;DHT22;18312;51.486;7.144;2023-05-07T08:03:55;18.80;99.90
31733;DHT22;18312;51.486;7.144;2023-05-07T08:06:23;18.70;99.90
31733;DHT22;18312;51.486;7.144;2023-05-07T08:08:50;18.50;99.90
31733;DHT22;18312;51.486;7.144;2023-05-07T08:11:17;18.40;99.90
31733;DHT22;18312;51.486;7.144;2023-05-07T08:13:44;18.70;99.90
31733;DHT22;18312;51.486;7.144;2023-05-07T08:16:12;18.70;99.90
31733;DHT22;18312;51.486;7.144;2023-05-07T08:18:39;18.70;99.90
31733;DHT22;18312;51.486;7.144;2023-05-07T08:21:05;18.80;99.90
31733;DHT22;18312;51.486;7.144;2023-05-07T08:23:32;18.90;99.90
31733;DHT22;18312;51.486;7.144;2023-05-07T08:25:59;18.90;99.90
31733;DHT22;18312;51.486;7.144;2023-05-07T08:28:26;19.00;99.90
31733;DHT22;18312;51.486;7.144;2023-05-07T08:30:53;19.10;99.90
31733;DHT22;18312;51.486;7.144;2023-05-07T08:33:20;19.00;99.90
31733;DHT22;18312;51.486;7.144;2023-05-07T08:35:47;19.00;99.90
31733;DHT22;18312;51.486;7.144;2023-05-07T08:38:14;19.30;99.90
31733;DHT22;18312;51.486;7.144;2023-05-07T08:40:40;19.30;99.90
31733;DHT22;18312;51.486;7.144;2023-05-07T08:43:07;19.50;99.90
31733;DHT22;18312;51.486;7.144;2023-05-07T08:45:34;19.60;99.90
31733;DHT22;18312;51.486;7.144;2023-05-07T08:48:02;20.40;99.90
31733;DHT22;18312;51.486;7.144;2023-05-07T08:50:30;20.50;99.90
31733;DHT22;18312;51.486;7.144;2023-05-07T08:52:57;21.00;99.90
31733;DHT22;18312;51.486;7.144;2023-05-07T08:55:25;20.80;99.90
31733;DHT22;18312;51.486;7.144;2023-05-07T08:57:51;20.40;99.90
31733;DHT22;18312;51.486;7.144;2023-05-07T09:00:19;20.30;99.90
31733;DHT22;18312;51.486;7.144;2023-05-07T09:02:46;20.10;99.90
31733;DHT22;18312;51.486;7.144;2023-05-07T09:05:13;20.10;99.90
31733;DHT22;18312;51.486;7.144;2023-05-07T09:07:41;20.30;99.90
31733;DHT22;18312;51.486;7.144;2023-05-07T09:10:08;20.00;99.90
31733;DHT22;18312;51.486;7.144;2023-05-07T09:12:35;20.20;99.90
31733;DHT22;18312;51.486;7.144;2023-05-07T09:15:01;20.70;99.90
31733;DHT22;18312;51.486;7.144;2023-05-07T09:17:28;20.60;99.90
31733;DHT22;18312;51.486;7.144;2023-05-07T09:19:55;21.00;99.90
31733;DHT22;18312;51.486;7.144;2023-05-07T09:22:21;20.90;99.90
31733;DHT22;18312;51.486;7.144;2023-05-07T09:24:49;20.70;99.90
31733;DHT22;18312;51.486;7.144;2023-05-07T09:27:16;20.90;99.90
31733;DHT22;18312;51.486;7.144;2023-05-07T09:29:43;20.80;99.90
31733;DHT22;18312;51.486;7.144;2023-05-07T09:32:10;21.20;99.90
31733;DHT22;18312;51.486;7.144;2023-05-07T09:34:37;21.30;99.90
31733;DHT22;18312;51.486;7.144;2023-05-07T09:37:04;22.00;99.90
31733;DHT22;18312;51.486;7.144;2023-05-07T09:39:40;22.90;99.90
31733;DHT22;18312;51.486;7.144;2023-05-07T09:42:09;22.30;99.90
31733;DHT22;18312;51.486;7.144;2023-05-07T09:44:36;21.70;99.90
31733;DHT22;18312;51.486;7.144;2023-05-07T09:47:04;21.30;99.90
31733;DHT22;18312;51.486;7.144;2023-05-07T09:49:32;21.60;99.90
31733;DHT22;18312;51.486;7.144;2023-05-07T09:51:59;21.90;99.90
31733;DHT22;18312;51.486;7.144;2023-05-07T09:54:26;21.60;99.90
31733;DHT22;18312;51.486;7.144;2023-05-07T09:56:54;22.10;99.90
31733;DHT22;18312;51.486;7.144;2023-05-07T09:59:23;22.00;99.90
31733;DHT22;18312;51.486;7.144;2023-05-07T10:01:52;22.10;99.90
31733;DHT22;18312;51.486;7.144;2023-05-07T10:04:22;22.60;99.90
31733;DHT22;18312;51.486;7.144;2023-05-07T10:06:49;22.50;99.90
31733;DHT22;18312;51.486;7.144;2023-05-07T10:09:16;22.00;99.50
31733;DHT22;18312;51.486;7.144;2023-05-07T10:11:43;22.10;99.30
31733;DHT22;18312;51.486;7.144;2023-05-07T10:14:10;21.80;99.40
31733;DHT22;18312;51.486;7.144;2023-05-07T10:16:38;22.10;99.60
31733;DHT22;18312;51.486;7.144;2023-05-07T10:19:05;22.50;98.80
31733;DHT22;18312;51.486;7.144;2023-05-07T10:21:33;22.10;98.80
31733;DHT22;18312;51.486;7.144;2023-05-07T10:24:03;21.60;97.90
31733;DHT22;18312;51.486;7.144;2023-05-07T10:26:31;21.90;97.90
31733;DHT22;18312;51.486;7.144;2023-05-07T10:28:59;22.30;97.10
31733;DHT22;18312;51.486;7.144;2023-05-07T10:34:20;22.10;95.80
31733;DHT22;18312;51.486;7.144;2023-05-07T10:36:48;21.90;97.80
31733;DHT22;18312;51.486;7.144;2023-05-07T10:39:15;22.00;97.90
31733;DHT22;18312;51.486;7.144;2023-05-07T10:41:41;22.30;97.40
31733;DHT22;18312;51.486;7.144;2023-05-07T10:44:08;21.90;97.30
31733;DHT22;18312;51.486;7.144;2023-05-07T10:46:35;21.80;97.60
31733;DHT22;18312;51.486;7.144;2023-05-07T10:49:11;21.70;97.70
31733;DHT22;18312;51.486;7.144;2023-05-07T10:51:39;21.80;98.10
31733;DHT22;18312;51.486;7.144;2023-05-07T10:56:53;21.90;98.30
31733;DHT22;18312;51.486;7.144;2023-05-07T10:59:36;22.10;97.80
31733;DHT22;18312;51.486;7.144;2023-05-07T11:02:07;22.40;96.80
31733;DHT22;18312;51.486;7.144;2023-05-07T11:04:36;23.00;95.80
31733;DHT22;18312;51.486;7.144;2023-05-07T11:09:56;23.00;95.60
31733;DHT22;18312;51.486;7.144;2023-05-07T11:15:13;23.20;94.60
31733;DHT22;18312;51.486;7.144;2023-05-07T11:17:51;23.10;94.40
31733;DHT22;18312;51.486;7.144;2023-05-07T11:20:18;23.60;93.80
31733;DHT22;18312;51.486;7.144;2023-05-07T11:22:45;23.40;93.50
31733;DHT22;18312;51.486;7.144;2023-05-07T11:25:18;23.40;93.50
31733;DHT22;18312;51.486;7.144;2023-05-07T11:27:44;23.50;93.90
31733;DHT22;18312;51.486;7.144;2023-05-07T11:30:16;23.20;91.50
31733;DHT22;18312;51.486;7.144;2023-05-07T11:32:43;23.50;92.30
31733;DHT22;18312;51.486;7.144;2023-05-07T11:35:09;23.50;92.50
31733;DHT22;18312;51.486;7.144;2023-05-07T11:37:36;23.00;92.90
31733;DHT22;18312;51.486;7.144;2023-05-07T11:40:03;22.70;94.00
31733;DHT22;18312;51.486;7.144;2023-05-07T11:42:32;22.70;94.20
31733;DHT22;18312;51.486;7.144;2023-05-07T11:44:59;22.60;94.10
31733;DHT22;18312;51.486;7.144;2023-05-07T11:47:26;22.60;94.30
31733;DHT22;18312;51.486;7.144;2023-05-07T11:49:56;22.70;93.80
31733;DHT22;18312;51.486;7.144;2023-05-07T11:52:23;22.30;94.30
31733;DHT22;18312;51.486;7.144;2023-05-07T11:54:50;22.20;94.60
31733;DHT22;18312;51.486;7.144;2023-05-07T11:57:16;22.50;93.80
31733;DHT22;18312;51.486;7.144;2023-05-07T11:59:44;22.90;94.10
31733;DHT22;18312;51.486;7.144;2023-05-07T12:02:14;23.10;93.50
31733;DHT22;18312;51.486;7.144;2023-05-07T12:04:41;23.30;93.10
31733;DHT22;18312;51.486;7.144;2023-05-07T12:07:11;23.10;92.50
31733;DHT22;18312;51.486;7.144;2023-05-07T12:09:37;22.90;92.60
31733;DHT22;18312;51.486;7.144;2023-05-07T12:12:04;22.80;92.20
31733;DHT22;18312;51.486;7.144;2023-05-07T12:14:31;23.20;92.50
31733;DHT22;18312;51.486;7.144;2023-05-07T12:16:59;23.20;92.50
31733;DHT22;18312;51.486;7.144;2023-05-07T12:19:28;23.50;92.60
31733;DHT22;18312;51.486;7.144;2023-05-07T12:21:54;23.60;92.50
31733;DHT22;18312;51.486;7.144;2023-05-07T12:24:21;23.80;91.10
31733;DHT22;18312;51.486;7.144;2023-05-07T12:26:48;23.50;91.70
31733;DHT22;18312;51.486;7.144;2023-05-07T12:29:14;23.00;91.40
31733;DHT22;18312;51.486;7.144;2023-05-07T12:31:41;23.20;91.70
31733;DHT22;18312;51.486;7.144;2023-05-07T12:34:09;23.20;90.90
31733;DHT22;18312;51.486;7.144;2023-05-07T12:36:37;23.00;90.20
31733;DHT22;18312;51.486;7.144;2023-05-07T12:39:04;23.10;89.70
31733;DHT22;18312;51.486;7.144;2023-05-07T12:41:34;22.90;90.80
31733;DHT22;18312;51.486;7.144;2023-05-07T12:44:03;22.70;91.10
31733;DHT22;18312;51.486;7.144;2023-05-07T12:46:30;22.50;91.00
31733;DHT22;18312;51.486;7.144;2023-05-07T12:48:57;22.50;91.20
31733;DHT22;18312;51.486;7.144;2023-05-07T12:51:25;22.30;91.50
31733;DHT22;18312;51.486;7.144;2023-05-07T12:53:51;22.10;92.00
31733;DHT22;18312;51.486;7.144;2023-05-07T12:56:22;21.90;92.60
31733;DHT22;18312;51.486;7.144;2023-05-07T12:58:49;22.00;92.70
31733;DHT22;18312;51.486;7.144;2023-05-07T13:01:16;22.20;92.80
31733;DHT22;18312;51.486;7.144;2023-05-07T13:03:47;22.10;91.10
31733;DHT22;18312;51.486;7.144;2023-05-07T13:06:14;22.00;91.60
31733;DHT22;18312;51.486;7.144;2023-05-07T13:08:42;21.50;92.50
31733;DHT22;18312;51.486;7.144;2023-05-07T13:11:09;21.50;92.40
31733;DHT22;18312;51.486;7.144;2023-05-07T13:13:36;21.70;92.80
31733;DHT22;18312;51.486;7.144;2023-05-07T13:16:03;21.60;91.90
31733;DHT22;18312;51.486;7.144;2023-05-07T13:18:31;21.60;92.00
31733;DHT22;18312;51.486;7.144;2023-05-07T13:20:57;21.50;92.60
31733;DHT22;18312;51.486;7.144;2023-05-07T13:23:24;21.50;92.80
31733;DHT22;18312;51.486;7.144;2023-05-07T13:25:52;21.30;93.50
31733;DHT22;18312;51.486;7.144;2023-05-07T13:28:19;21.60;93.70
31733;DHT22;18312;51.486;7.144;2023-05-07T13:30:46;21.50;93.60
31733;DHT22;18312;51.486;7.144;2023-05-07T13:33:13;21.40;94.10
31733;DHT22;18312;51.486;7.144;2023-05-07T13:35:40;21.40;94.10
31733;DHT22;18312;51.486;7.144;2023-05-07T13:38:07;21.10;94.60
31733;DHT22;18312;51.486;7.144;2023-05-07T13:40:36;21.10;95.10
31733;DHT22;18312;51.486;7.144;2023-05-07T13:43:05;21.10;95.60
31733;DHT22;18312;51.486;7.144;2023-05-07T13:45:32;21.20;95.30
31733;DHT22;18312;51.486;7.144;2023-05-07T13:47:58;21.20;95.30
31733;DHT22;18312;51.486;7.144;2023-05-07T13:50:25;21.20;95.90
31733;DHT22;18312;51.486;7.144;2023-05-07T13:52:55;21.20;95.90
31733;DHT22;18312;51.486;7.144;2023-05-07T13:55:23;21.20;96.00
31733;DHT22;18312;51.486;7.144;2023-05-07T13:57:55;21.00;95.80
31733;DHT22;18312;51.486;7.144;2023-05-07T14:00:23;21.00;96.00
31733;DHT22;18312;51.486;7.144;2023-05-07T14:02:50;20.90;96.20
31733;DHT22;18312;51.486;7.144;2023-05-07T14:05:17;20.90;96.10
31733;DHT22;18312;51.486;7.144;2023-05-07T14:07:43;21.10;95.90
31733;DHT22;18312;51.486;7.144;2023-05-07T14:10:10;21.20;95.50
31733;DHT22;18312;51.486;7.144;2023-05-07T14:12:38;21.10;95.00
31733;DHT22;18312;51.486;7.144;2023-05-07T14:15:05;21.10;95.30
31733;DHT22;18312;51.486;7.144;2023-05-07T14:17:33;21.20;95.50
31733;DHT22;18312;51.486;7.144;2023-05-07T14:20:00;21.20;95.00
31733;DHT22;18312;51.486;7.144;2023-05-07T14:22:26;21.20;95.20
31733;DHT22;18312;51.486;7.144;2023-05-07T14:24:53;21.30;95.00
31733;DHT22;18312;51.486;7.144;2023-05-07T14:27:20;21.30;95.00
31733;DHT22;18312;51.486;7.144;2023-05-07T14:29:46;21.30;95.50
31733;DHT22;18312;51.486;7.144;2023-05-07T14:32:16;21.30;95.70
31733;DHT22;18312;51.486;7.144;2023-05-07T14:34:44;21.20;96.10
31733;DHT22;18312;51.486;7.144;2023-05-07T14:37:11;21.10;96.30
31733;DHT22;18312;51.486;7.144;2023-05-07T14:39:37;21.10;96.50
31733;DHT22;18312;51.486;7.144;2023-05-07T14:42:04;21.10;96.70
31733;DHT22;18312;51.486;7.144;2023-05-07T14:44:33;21.20;97.00
31733;DHT22;18312;51.486;7.144;2023-05-07T14:46:59;21.20;97.30
31733;DHT22;18312;51.486;7.144;2023-05-07T14:49:26;21.00;97.30
31733;DHT22;18312;51.486;7.144;2023-05-07T14:51:56;21.00;97.50
31733;DHT22;18312;51.486;7.144;2023-05-07T14:54:23;20.80;98.20
31733;DHT22;18312;51.486;7.144;2023-05-07T14:56:49;20.50;97.20
31733;DHT22;18312;51.486;7.144;2023-05-07T14:59:16;20.30;97.20
31733;DHT22;18312;51.486;7.144;2023-05-07T15:01:46;20.20;99.00
31733;DHT22;18312;51.486;7.144;2023-05-07T15:04:12;19.90;99.70
31733;DHT22;18312;51.486;7.144;2023-05-07T15:06:39;20.00;99.40
31733;DHT22;18312;51.486;7.144;2023-05-07T15:09:07;20.00;99.90
31733;DHT22;18312;51.486;7.144;2023-05-07T15:11:34;19.90;99.90
31733;DHT22;18312;51.486;7.144;2023-05-07T15:14:01;19.90;99.90
31733;DHT22;18312;51.486;7.144;2023-05-07T15:16:27;20.00;99.90
31733;DHT22;18312;51.486;7.144;2023-05-07T15:18:54;20.00;99.90
31733;DHT22;18312;51.486;7.144;2023-05-07T15:21:20;20.00;99.90
31733;DHT22;18312;51.486;7.144;2023-05-07T15:23:47;20.10;99.90
31733;DHT22;18312;51.486;7.144;2023-05-07T15:26:15;20.10;99.90
31733;DHT22;18312;51.486;7.144;2023-05-07T15:28:42;20.10;99.90
31733;DHT22;18312;51.486;7.144;2023-05-07T15:31:09;20.00;99.90
31733;DHT22;18312;51.486;7.144;2023-05-07T15:33:37;20.20;99.90
31733;DHT22;18312;51.486;7.144;2023-05-07T15:36:04;20.20;99.90
31733;DHT22;18312;51.486;7.144;2023-05-07T15:38:31;20.20;99.90
31733;DHT22;18312;51.486;7.144;2023-05-07T15:40:58;20.20;99.90